Time;durP1;ratioP1;P1;durP2;ratioP2;P2;SDS_P1;SDS_P2;PMS_P1;PMS_P2;Temp;Humidity;BMP_temperature;BMP_pressure;BME280_temperature;BME280_humidity;BME280_pressure;Samples;Min_cycle;Max_cycle;Signal;HPM_P1;HPM_P2
2023/07/12 00:00:20;;;;;;;10.20;7.67;;;;;;;23.48;63.96;95151.75;5077100;28;20441;-81
2023/07/12 00:02:48;;;;;;;8.33;7.53;;;;;;;23.43;64.46;95135.47;5113094;28;20441;-79
2023/07/12 00:05:17;;;;;;;8.37;7.57;;;;;;;23.36;64.59;95131.09;5112738;28;20506;-79
2023/07/12 00:07:46;;;;;;;8.50;7.60;;;;;;;23.39;64.63;95136.88;5112651;28;20441;-79
2023/07/12 00:10:16;;;;;;;9.43;8.37;;;;;;;23.38;64.81;95137.91;5112910;28;20520;-80
2023/07/12 00:12:43;;;;;;;9.20;7.10;;;;;;;23.36;64.91;95131.09;5112626;28;20445;-78
2023/07/12 00:15:12;;;;;;;8.67;7.70;;;;;;;23.40;64.68;95135.84;5112948;28;20454;-80
2023/07/12 00:17:39;;;;;;;10.67;7.70;;;;;;;23.40;65.05;95124.28;5112766;28;20490;-79
2023/07/12 00:20:20;;;;;;;9.17;8.30;;;;;;;23.39;64.80;95130.69;5112712;28;20445;-79
2023/07/12 00:22:47;;;;;;;7.67;6.80;;;;;;;23.35;65.11;95129.44;5112531;28;20444;-79
2023/07/12 00:25:15;;;;;;;9.13;7.67;;;;;;;23.30;65.25;95121.19;5112682;28;20851;-78
2023/07/12 00:27:42;;;;;;;10.40;7.50;;;;;;;23.31;65.28;95123.66;5061061;28;20487;-79
2023/07/12 00:30:17;;;;;;;11.50;8.53;;;;;;;23.32;65.24;95119.97;5063470;28;20441;-79
2023/07/12 00:32:43;;;;;;;9.00;8.10;;;;;;;23.33;65.40;95116.25;5116190;28;20466;-79
2023/07/12 00:35:16;;;;;;;11.80;7.10;;;;;;;23.31;65.80;95112.97;5115700;28;20452;-79
2023/07/12 00:37:44;;;;;;;8.47;7.67;;;;;;;23.32;66.01;95114.59;5115834;28;20491;-79
2023/07/12 00:40:22;;;;;;;11.70;8.30;;;;;;;23.31;65.84;95107.59;5115892;28;20450;-79
2023/07/12 00:42:55;;;;;;;10.43;8.20;;;;;;;23.27;65.55;95106.38;5080298;28;20436;-79
2023/07/12 00:45:23;;;;;;;10.53;8.50;;;;;;;23.28;65.95;95108.00;5116126;28;20439;-79
2023/07/12 00:47:50;;;;;;;10.73;8.00;;;;;;;23.27;65.82;95101.00;5080206;28;20483;-79
2023/07/12 00:50:19;;;;;;;10.40;7.73;;;;;;;23.24;65.97;95096.06;5115681;28;20450;-79
2023/07/12 00:52:48;;;;;;;9.30;8.10;;;;;;;23.22;66.16;95100.78;5116073;28;20534;-79
2023/07/12 00:55:56;;;;;;;9.60;7.80;;;;;;;23.20;66.64;95099.34;5115798;28;20445;-79
2023/07/12 00:58:24;;;;;;;9.93;8.43;;;;;;;23.14;66.97;95095.63;5052656;28;20829;-80
2023/07/12 01:00:52;;;;;;;10.53;8.90;;;;;;;23.16;66.85;95104.28;5052959;28;20466;-78
2023/07/12 01:03:21;;;;;;;16.13;8.40;;;;;;;23.13;67.35;95110.03;5052813;28;20450;-79
2023/07/12 01:05:48;;;;;;;8.63;7.80;;;;;;;23.07;67.71;95102.81;5052738;28;20448;-79
2023/07/12 01:08:17;;;;;;;10.40;9.40;;;;;;;23.07;67.86;95105.47;5054778;28;20444;-78
2023/07/12 01:10:44;;;;;;;9.63;8.40;;;;;;;22.95;68.13;95102.56;5052665;28;20456;-80
2023/07/12 01:13:11;;;;;;;10.67;9.50;;;;;;;22.94;68.41;95100.09;5052486;28;20443;-79
2023/07/12 01:15:38;;;;;;;9.23;8.00;;;;;;;22.95;68.83;95099.91;5052309;28;20457;-78
2023/07/12 01:18:08;;;;;;;11.17;8.10;;;;;;;22.95;68.94;95102.56;5019336;28;20450;-80
2023/07/12 01:20:36;;;;;;;10.30;8.63;;;;;;;22.92;69.17;95102.97;5052352;28;20450;-79
2023/07/12 01:23:05;;;;;;;10.90;8.20;;;;;;;22.94;69.21;95100.09;5052309;28;20450;-79
2023/07/12 01:25:37;;;;;;;10.00;8.50;;;;;;;22.82;69.76;95097.16;5052291;28;20532;-79
2023/07/12 01:28:05;;;;;;;9.43;7.87;;;;;;;22.80;69.95;95099.19;5052177;28;20486;-78
2023/07/12 01:30:33;;;;;;;10.50;9.43;;;;;;;22.81;70.13;95099.00;5052325;28;20443;-79
2023/07/12 01:33:00;;;;;;;11.00;8.40;;;;;;;22.81;70.00;95093.66;5035750;28;20456;-79
2023/07/12 01:35:27;;;;;;;10.80;9.70;;;;;;;22.64;70.69;95095.03;5096049;28;20484;-79
2023/07/12 01:37:53;;;;;;;10.90;9.03;;;;;;;22.59;70.98;95097.47;5114831;28;20446;-80
2023/07/12 01:40:22;;;;;;;10.20;9.20;;;;;;;22.49;71.73;95097.81;5078164;28;20994;-79
2023/07/12 01:42:49;;;;;;;10.70;8.73;;;;;;;22.50;72.27;95095.97;5115058;28;20450;-79
2023/07/12 01:45:16;;;;;;;9.10;8.23;;;;;;;22.47;72.45;95099.03;5114951;28;20453;-79
2023/07/12 01:47:45;;;;;;;11.47;9.17;;;;;;;22.48;72.34;95095.34;5114858;28;20513;-77
2023/07/12 01:50:11;;;;;;;15.10;9.97;;;;;;;22.54;71.91;95099.88;5114731;28;20446;-78
2023/07/12 01:52:38;;;;;;;11.63;9.13;;;;;;;22.45;72.53;95093.88;5114595;28;20445;-79
2023/07/12 01:55:05;;;;;;;9.40;8.60;;;;;;;22.49;72.81;95094.31;5114290;28;20472;-79
2023/07/12 01:57:34;;;;;;;10.37;9.23;;;;;;;22.54;73.05;95113.25;5115009;28;20533;-79
2023/07/12 02:00:00;;;;;;;10.03;9.03;;;;;;;22.55;73.10;95109.56;5115127;28;20438;-79
2023/07/12 02:02:29;;;;;;;9.67;8.67;;;;;;;22.52;72.78;95104.63;5116116;28;20451;-80
2023/07/12 02:04:56;;;;;;;10.70;9.67;;;;;;;22.55;72.98;95109.56;5121805;28;20452;-80
2023/07/12 02:07:23;;;;;;;10.57;9.30;;;;;;;22.57;73.03;95104.88;5134317;28;20484;-78
2023/07/12 02:10:09;;;;;;;13.83;9.57;;;;;;;22.56;72.80;95106.72;5134364;28;20441;-78
2023/07/12 02:12:37;;;;;;;11.87;10.10;;;;;;;22.55;72.78;95106.88;5130592;28;20445;-78
2023/07/12 02:15:05;;;;;;;10.77;9.63;;;;;;;22.56;72.95;95114.75;5134556;28;20435;-79
2023/07/12 02:17:31;;;;;;;9.77;8.87;;;;;;;22.53;73.05;95115.13;5135840;28;20464;-80
2023/07/12 02:19:58;;;;;;;9.67;8.83;;;;;;;22.56;72.76;95116.59;5137213;28;20426;-79
2023/07/12 02:22:25;;;;;;;11.90;10.70;;;;;;;22.56;72.90;95125.44;5136656;28;20442;-79
2023/07/12 02:24:52;;;;;;;11.60;9.80;;;;;;;22.58;72.96;95125.25;5136823;28;20428;-80
2023/07/12 02:27:18;;;;;;;11.03;9.70;;;;;;;22.53;72.95;95125.81;5135852;28;20486;-81
2023/07/12 02:29:47;;;;;;;10.83;9.73;;;;;;;22.52;73.40;95131.38;5135569;28;20430;-80
2023/07/12 02:32:13;;;;;;;9.87;8.87;;;;;;;22.55;73.21;95128.28;5135316;28;20446;-80
2023/07/12 02:34:40;;;;;;;10.80;9.50;;;;;;;22.50;73.38;95136.09;5116042;28;20454;-79
2023/07/12 02:37:07;;;;;;;11.37;9.97;;;;;;;22.47;73.30;95129.28;5115517;28;20468;-79
2023/07/12 02:39:34;;;;;;;11.77;9.40;;;;;;;22.45;73.49;95128.66;5115059;28;20451;-80
2023/07/12 02:42:00;;;;;;;9.83;8.83;;;;;;;22.45;73.70;95133.19;5114818;28;20802;-78
2023/07/12 02:44:27;;;;;;;13.03;10.10;;;;;;;22.45;73.46;95142.03;5115104;28;20447;-79
2023/07/12 02:46:55;;;;;;;11.27;9.57;;;;;;;22.44;73.79;95136.88;5114179;28;20489;-79
2023/07/12 02:49:22;;;;;;;10.60;9.37;;;;;;;22.44;73.98;95142.22;5114886;28;20436;-79
2023/07/12 02:51:49;;;;;;;10.47;9.50;;;;;;;22.46;73.91;95154.38;5114486;28;20945;-79
2023/07/12 02:54:16;;;;;;;11.87;10.60;;;;;;;22.45;73.62;95149.22;5114936;28;20440;-79
2023/07/12 02:56:43;;;;;;;18.60;10.60;;;;;;;22.44;73.73;95163.63;5115192;28;21051;-79
2023/07/12 02:59:10;;;;;;;11.60;10.50;;;;;;;22.39;73.82;95160.72;5078715;28;20453;-79
2023/07/12 03:01:37;;;;;;;12.63;11.20;;;;;;;22.35;74.04;95160.28;5113743;28;20448;-79
2023/07/12 03:04:05;;;;;;;12.53;10.20;;;;;;;22.23;74.30;95156.47;5113598;28;20440;-79
2023/07/12 03:06:32;;;;;;;11.97;10.60;;;;;;;22.19;74.43;95161.41;5113269;28;20451;-79
2023/07/12 03:08:59;;;;;;;11.47;10.37;;;;;;;22.15;74.93;95162.00;5113276;28;20446;-79
2023/07/12 03:11:25;;;;;;;13.37;8.90;;;;;;;22.07;75.18;95157.63;5113715;28;20446;-79
2023/07/12 03:13:52;;;;;;;13.80;9.40;;;;;;;22.11;75.17;95168.75;5060952;28;20439;-78
2023/07/12 03:16:19;;;;;;;12.17;11.00;;;;;;;22.07;75.59;95167.47;5060834;28;20940;-78
2023/07/12 03:18:46;;;;;;;14.60;9.67;;;;;;;22.08;75.33;95174.47;5113506;28;20456;-79
2023/07/12 03:21:14;;;;;;;12.10;10.23;;;;;;;22.08;75.74;95172.63;5113088;28;20454;-79
2023/07/12 03:23:41;;;;;;;14.03;10.60;;;;;;;22.06;75.67;95166.66;5113250;28;21038;-78
2023/07/12 03:26:08;;;;;;;14.93;9.40;;;;;;;22.08;75.61;95169.97;5113543;28;20445;-78
2023/07/12 03:28:37;;;;;;;12.20;10.43;;;;;;;22.15;75.96;95170.00;5112914;28;20480;-80
2023/07/12 03:31:07;;;;;;;11.47;10.30;;;;;;;22.18;75.44;95165.09;5060411;28;20439;-80
2023/07/12 03:33:33;;;;;;;10.87;9.77;;;;;;;22.36;75.42;95182.50;5113324;28;20452;-79
2023/07/12 03:36:01;;;;;;;12.00;10.63;;;;;;;22.48;74.52;95178.25;5113079;28;20504;-78
2023/07/12 03:38:30;;;;;;;11.73;9.43;;;;;;;22.56;73.82;95184.28;5113236;28;20448;-80
2023/07/12 03:40:59;;;;;;;12.57;11.10;;;;;;;22.71;73.88;95186.00;5113589;28;20450;-79
2023/07/12 03:43:27;;;;;;;14.33;10.70;;;;;;;22.89;72.93;95181.00;5113316;28;20447;-79
2023/07/12 03:45:54;;;;;;;11.10;9.93;;;;;;;23.12;71.83;95177.97;5113110;28;20441;-79
2023/07/12 03:48:23;;;;;;;18.00;10.70;;;;;;;23.36;71.07;95174.78;5113277;28;20516;-80
2023/07/12 03:50:51;;;;;;;20.83;9.37;;;;;;;23.64;70.14;95187.22;5113039;28;20485;-80
2023/07/12 03:53:18;;;;;;;12.63;9.73;;;;;;;23.86;69.25;95194.06;5113130;28;20438;-80
2023/07/12 03:55:47;;;;;;;10.83;9.70;;;;;;;24.10;68.19;95200.69;5077438;28;20448;-80
2023/07/12 03:58:16;;;;;;;11.17;10.07;;;;;;;24.31;67.54;95200.53;5113390;28;20944;-80
2023/07/12 04:00:45;;;;;;;15.63;10.90;;;;;;;24.52;66.31;95207.50;5113263;28;20442;-80
2023/07/12 04:03:12;;;;;;;10.63;9.63;;;;;;;24.66;65.43;95203.78;5114926;28;20525;-80
2023/07/12 04:05:40;;;;;;;12.77;10.47;;;;;;;24.80;65.24;95203.75;5116829;28;20447;-80
2023/07/12 04:08:07;;;;;;;10.80;9.83;;;;;;;24.88;64.61;95201.69;5117516;28;20581;-80
2023/07/12 04:10:35;;;;;;;13.27;10.23;;;;;;;24.92;64.86;95197.53;5116773;28;20443;-80
2023/07/12 04:13:04;;;;;;;16.30;9.67;;;;;;;24.99;64.69;95193.00;5116943;28;20443;-80
2023/07/12 04:15:31;;;;;;;10.63;9.60;;;;;;;24.99;64.09;95192.16;5116855;28;20446;-80
2023/07/12 04:17:58;;;;;;;11.40;9.77;;;;;;;25.04;64.30;95195.03;5116922;28;20442;-80
2023/07/12 04:20:25;;;;;;;10.97;9.97;;;;;;;25.08;64.34;95196.25;5117213;28;20476;-79
2023/07/12 04:22:54;;;;;;;10.47;9.47;;;;;;;25.12;63.86;95197.47;5116665;28;20841;-80
2023/07/12 04:25:21;;;;;;;12.93;10.10;;;;;;;25.25;63.71;95183.19;5116712;28;20452;-80
2023/07/12 04:27:48;;;;;;;12.23;10.90;;;;;;;25.45;63.58;95193.84;5116297;28;20474;-80
2023/07/12 04:30:17;;;;;;;11.73;8.73;;;;;;;25.66;62.63;95184.59;5116368;28;20439;-81
2023/07/12 04:32:47;;;;;;;13.00;10.50;;;;;;;25.83;62.40;95191.97;5116572;28;20446;-80
2023/07/12 04:35:14;;;;;;;12.43;9.20;;;;;;;26.05;61.89;95195.16;5116444;28;20870;-80
2023/07/12 04:37:45;;;;;;;10.47;9.43;;;;;;;26.30;60.98;95188.91;5116324;28;20435;-80
2023/07/12 04:40:13;;;;;;;10.73;9.70;;;;;;;26.60;60.40;95194.47;5081096;28;20854;-80
2023/07/12 04:42:40;;;;;;;11.30;10.30;;;;;;;26.86;59.35;95188.81;5116648;28;20447;-80
2023/07/12 04:45:09;;;;;;;13.20;10.57;;;;;;;27.08;58.42;95186.56;5116832;28;20451;-80
2023/07/12 04:47:37;;;;;;;15.60;12.43;;;;;;;27.24;56.95;95193.22;5116260;28;20877;-78
2023/07/12 04:50:04;;;;;;;15.67;14.07;;;;;;;27.26;56.87;95185.72;5116659;28;20432;-80
2023/07/12 04:52:31;;;;;;;15.17;12.40;;;;;;;27.32;57.11;95199.13;5116460;28;20442;-80
2023/07/12 04:54:58;;;;;;;14.93;11.73;;;;;;;27.26;56.99;95193.81;5116434;28;20454;-79
2023/07/12 04:57:25;;;;;;;19.63;12.87;;;;;;;27.44;57.27;95193.78;5116272;28;20933;-80
2023/07/12 04:59:52;;;;;;;22.30;11.73;;;;;;;27.73;57.55;95205.66;5116113;28;20450;-80
2023/07/12 05:02:19;;;;;;;19.60;12.70;;;;;;;28.08;55.47;95208.47;5115689;28;20443;-80
2023/07/12 05:04:47;;;;;;;15.83;12.07;;;;;;;28.26;54.67;95211.13;5115591;28;20446;-79
2023/07/12 05:07:14;;;;;;;17.63;11.73;;;;;;;28.50;54.05;95214.66;5115747;28;20479;-78
2023/07/12 05:09:41;;;;;;;15.80;11.83;;;;;;;28.65;53.81;95206.13;5115573;28;20443;-80
2023/07/12 05:12:08;;;;;;;15.80;11.87;;;;;;;28.55;54.09;95203.16;5115894;28;20431;-80
2023/07/12 05:14:35;;;;;;;19.20;13.60;;;;;;;28.43;53.11;95202.34;5115539;28;20439;-79
2023/07/12 05:17:03;;;;;;;15.17;12.20;;;;;;;28.10;55.20;95200.16;5115418;28;20447;-80
2023/07/12 05:19:30;;;;;;;19.40;12.27;;;;;;;28.02;56.81;95193.19;5115555;28;20450;-78
2023/07/12 05:21:59;;;;;;;24.53;13.57;;;;;;;28.28;56.60;95206.31;5115901;28;20443;-79
2023/07/12 05:24:26;;;;;;;27.37;13.93;;;;;;;28.46;56.12;95199.19;5115188;28;21107;-80
2023/07/12 05:26:53;;;;;;;17.00;12.10;;;;;;;28.77;56.07;95201.53;5115608;28;20833;-80
2023/07/12 05:29:22;;;;;;;17.83;13.73;;;;;;;29.06;54.81;95201.66;5115106;28;20482;-80
2023/07/12 05:31:49;;;;;;;17.20;14.40;;;;;;;29.01;53.77;95199.66;5115117;28;20446;-79
2023/07/12 05:34:16;;;;;;;24.87;14.47;;;;;;;29.34;53.89;95204.41;5115337;28;20587;-79
2023/07/12 05:36:43;;;;;;;24.87;15.60;;;;;;;29.24;53.56;95198.81;5115109;28;20462;-80
2023/07/12 05:39:11;;;;;;;23.97;14.13;;;;;;;28.57;55.50;95206.44;5115494;28;20434;-80
2023/07/12 05:41:38;;;;;;;14.73;13.23;;;;;;;28.69;55.77;95200.00;5096185;28;20435;-80
2023/07/12 05:44:07;;;;;;;23.23;14.20;;;;;;;28.78;54.68;95202.34;5114870;28;20964;-79
2023/07/12 05:46:34;;;;;;;17.87;13.77;;;;;;;29.15;54.46;95197.53;5114894;28;20439;-80
2023/07/12 05:49:01;;;;;;;18.33;12.40;;;;;;;29.60;53.57;95217.44;5114644;28;20536;-78
2023/07/12 05:51:28;;;;;;;19.33;13.60;;;;;;;29.86;51.88;95205.22;5079034;28;20825;-79
2023/07/12 05:53:54;;;;;;;18.57;13.27;;;;;;;29.75;52.56;95199.84;5114771;28;20447;-80
2023/07/12 05:56:23;;;;;;;22.30;12.73;;;;;;;29.90;52.47;95206.38;5114597;28;20446;-80
2023/07/12 05:58:49;;;;;;;22.53;12.70;;;;;;;30.02;51.52;95217.13;5114309;28;20451;-80
2023/07/12 06:01:17;;;;;;;13.97;12.40;;;;;;;29.65;51.86;95207.75;5114691;28;20446;-80
2023/07/12 06:03:44;;;;;;;15.30;13.30;;;;;;;29.60;51.75;95214.72;5114281;28;20443;-80
2023/07/12 06:06:11;;;;;;;16.37;11.60;;;;;;;29.75;52.22;95216.06;5114427;28;20443;-81
2023/07/12 06:08:37;;;;;;;18.67;11.00;;;;;;;29.98;51.72;95207.84;5114400;28;20510;-80
2023/07/12 06:11:04;;;;;;;15.73;14.20;;;;;;;30.37;51.34;95221.56;5114037;28;20439;-80
2023/07/12 06:13:33;;;;;;;17.03;11.47;;;;;;;30.53;49.03;95210.72;5113909;28;20461;-80
2023/07/12 06:15:59;;;;;;;14.67;13.17;;;;;;;30.78;49.45;95217.63;5114275;28;20443;-80
2023/07/12 06:18:26;;;;;;;15.30;12.03;;;;;;;30.96;49.09;95219.28;5113949;28;20447;-80
2023/07/12 06:20:56;;;;;;;16.07;12.73;;;;;;;31.05;48.68;95223.19;5114013;28;20445;-82
2023/07/12 06:23:24;;;;;;;13.07;11.70;;;;;;;31.09;49.11;95213.47;5114246;28;20998;-80
2023/07/12 06:25:51;;;;;;;12.17;11.00;;;;;;;31.36;49.24;95222.56;5113669;28;20443;-80
2023/07/12 06:28:18;;;;;;;12.87;11.33;;;;;;;31.25;48.51;95226.22;5094910;28;20482;-79
2023/07/12 06:30:46;;;;;;;14.97;11.93;;;;;;;31.57;48.64;95220.94;5113731;28;20933;-80
2023/07/12 06:33:13;;;;;;;14.37;11.90;;;;;;;31.48;46.75;95221.59;5113780;28;20945;-80
2023/07/12 06:35:41;;;;;;;13.73;12.33;;;;;;;31.30;47.51;95220.84;5113927;28;20636;-80
2023/07/12 06:38:07;;;;;;;12.33;11.03;;;;;;;31.19;48.40;95210.94;5114062;28;20956;-80
2023/07/12 06:40:34;;;;;;;12.83;11.47;;;;;;;31.59;48.03;95205.22;5113474;28;20805;-80
2023/07/12 06:43:01;;;;;;;13.23;10.90;;;;;;;31.62;47.86;95202.00;5113984;28;20442;-81
2023/07/12 06:45:28;;;;;;;13.10;11.70;;;;;;;31.96;47.17;95210.81;5113743;28;20450;-80
2023/07/12 06:47:56;;;;;;;12.77;11.17;;;;;;;31.96;47.04;95218.94;5113804;28;20479;-79
2023/07/12 06:50:23;;;;;;;14.57;11.90;;;;;;;31.86;47.45;95218.84;5113566;28;20964;-80
2023/07/12 06:52:50;;;;;;;13.73;10.50;;;;;;;31.88;46.16;95213.16;5113579;28;20439;-80
2023/07/12 06:55:17;;;;;;;12.60;11.40;;;;;;;31.89;45.28;95210.19;5094544;28;20434;-80
2023/07/12 06:57:44;;;;;;;14.00;12.60;;;;;;;31.88;45.48;95200.41;5113546;28;20451;-81
2023/07/12 07:00:12;;;;;;;17.93;12.03;;;;;;;31.51;46.93;95199.41;5113550;28;20443;-80
2023/07/12 07:02:39;;;;;;;23.33;12.60;;;;;;;31.82;47.26;95206.88;5113417;28;20443;-80
2023/07/12 07:05:07;;;;;;;12.77;11.63;;;;;;;31.78;45.22;95199.47;5113170;28;20442;-80
2023/07/12 07:07:34;;;;;;;19.30;10.90;;;;;;;31.97;46.57;95201.59;5113309;28;20447;-80
2023/07/12 07:10:01;;;;;;;12.53;10.70;;;;;;;31.56;47.90;95196.75;5113174;28;20446;-81
2023/07/12 07:12:30;;;;;;;14.67;12.23;;;;;;;31.83;46.68;95203.06;5113183;28;20785;-79
2023/07/12 07:14:57;;;;;;;16.90;11.40;;;;;;;31.69;47.69;95204.50;5113676;28;20799;-80
2023/07/12 07:17:23;;;;;;;15.47;12.03;;;;;;;31.86;47.22;95204.47;5113906;28;20436;-79
2023/07/12 07:19:50;;;;;;;17.07;11.87;;;;;;;32.07;47.27;95211.72;5115800;28;20439;-79
2023/07/12 07:22:18;;;;;;;16.30;11.80;;;;;;;32.13;47.12;95216.16;5113321;28;20956;-80
2023/07/12 07:24:45;;;;;;;19.80;12.07;;;;;;;32.14;47.07;95217.78;5112974;28;20447;-81
2023/07/12 07:27:12;;;;;;;14.70;11.37;;;;;;;31.82;46.53;95227.75;5113339;28;20963;-81
2023/07/12 07:29:39;;;;;;;23.03;12.67;;;;;;;31.91;46.54;95226.22;5112788;28;20510;-79
2023/07/12 07:32:07;;;;;;;21.37;12.13;;;;;;;31.99;45.72;95223.88;5113385;28;20439;-80
2023/07/12 07:34:34;;;;;;;14.90;12.93;;;;;;;32.16;45.41;95222.97;5113003;28;20790;-79
2023/07/12 07:37:00;;;;;;;20.93;13.70;;;;;;;32.12;45.99;95216.41;5112886;28;20467;-80
2023/07/12 07:39:29;;;;;;;17.73;13.60;;;;;;;32.32;46.85;95216.59;5064761;28;20442;-80
2023/07/12 07:41:55;;;;;;;20.40;15.30;;;;;;;32.55;45.84;95210.84;5065257;28;20451;-81
2023/07/12 07:44:22;;;;;;;14.60;12.93;;;;;;;32.47;43.99;95208.59;5117287;28;20455;-80
2023/07/12 07:46:49;;;;;;;16.60;12.47;;;;;;;32.49;42.95;95209.16;5117235;28;20530;-80
2023/07/12 07:49:16;;;;;;;15.40;12.53;;;;;;;32.57;44.26;95207.84;5117174;28;20493;-79
2023/07/12 07:51:43;;;;;;;17.80;11.30;;;;;;;32.65;44.70;95213.63;5117433;28;20462;-80
2023/07/12 07:54:09;;;;;;;22.00;12.87;;;;;;;32.79;44.68;95210.50;5117045;28;20458;-81
2023/07/12 07:56:38;;;;;;;30.53;14.00;;;;;;;32.78;44.40;95212.38;5116913;28;20439;-81
2023/07/12 07:59:06;;;;;;;21.90;12.80;;;;;;;32.73;44.32;95216.97;5116709;28;20443;-80
2023/07/12 08:01:33;;;;;;;18.30;14.63;;;;;;;32.78;44.41;95211.56;5116669;28;20439;-81
2023/07/12 08:04:00;;;;;;;14.33;12.37;;;;;;;32.97;44.90;95203.84;5117031;28;20942;-80
2023/07/12 08:06:27;;;;;;;16.53;11.70;;;;;;;33.00;45.03;95201.41;5116622;28;20929;-81
2023/07/12 08:08:54;;;;;;;19.83;11.80;;;;;;;33.15;43.92;95206.09;5117607;28;20486;-79
2023/07/12 08:11:20;;;;;;;16.90;14.13;;;;;;;33.05;44.01;95201.44;5116831;28;20963;-80
2023/07/12 08:13:49;;;;;;;19.57;12.47;;;;;;;32.97;44.22;95210.09;5117166;28;20442;-80
2023/07/12 08:16:16;;;;;;;18.50;12.17;;;;;;;32.76;45.01;95214.53;5116770;28;20444;-81
2023/07/12 08:18:42;;;;;;;16.10;12.77;;;;;;;32.77;44.67;95216.16;5116646;28;20446;-80
2023/07/12 08:21:10;;;;;;;15.80;12.87;;;;;;;32.64;45.18;95211.16;5063996;28;20930;-78
2023/07/12 08:23:37;;;;;;;23.43;13.37;;;;;;;32.69;45.24;95208.50;5116163;28;20648;-80
2023/07/12 08:26:04;;;;;;;15.83;12.10;;;;;;;32.82;45.08;95210.78;5116345;28;20443;-80
2023/07/12 08:28:31;;;;;;;14.13;12.73;;;;;;;32.93;44.95;95211.66;5116037;28;20844;-79
2023/07/12 08:30:59;;;;;;;15.03;13.53;;;;;;;32.69;45.67;95215.84;5116326;28;20447;-80
2023/07/12 08:33:26;;;;;;;20.17;12.90;;;;;;;32.75;47.48;95209.34;5116345;28;20447;-80
2023/07/12 08:35:53;;;;;;;16.70;13.00;;;;;;;32.85;47.43;95199.41;5116362;28;21003;-79
2023/07/12 08:38:20;;;;;;;15.90;14.10;;;;;;;32.91;45.48;95202.97;5116654;28;20446;-80
2023/07/12 08:40:49;;;;;;;16.90;13.90;;;;;;;32.84;45.59;95207.81;5116574;28;20458;-80
2023/07/12 08:43:19;;;;;;;18.93;13.00;;;;;;;33.01;44.59;95203.03;5117086;28;20454;-80
2023/07/12 08:45:47;;;;;;;20.37;12.60;;;;;;;32.95;45.21;95207.59;5116802;28;20446;-80
2023/07/12 08:48:19;;;;;;;15.43;12.50;;;;;;;32.99;45.34;95212.53;5115634;28;21006;-81
2023/07/12 08:50:47;;;;;;;14.50;12.70;;;;;;;32.72;46.30;95209.88;5063415;28;20467;-81
2023/07/12 08:53:17;;;;;;;20.67;14.67;;;;;;;32.22;45.77;95205.63;5116627;28;20447;-80
2023/07/12 08:55:44;;;;;;;18.43;12.80;;;;;;;32.11;46.25;95195.75;5116804;28;20439;-81
2023/07/12 08:58:18;;;;;;;18.20;13.53;;;;;;;32.08;46.46;95209.81;5116019;28;20439;-81
2023/07/12 09:00:47;;;;;;;14.77;12.63;;;;;;;32.08;47.83;95201.66;5116417;28;20497;-80
2023/07/12 09:03:14;;;;;;;14.60;12.80;;;;;;;32.43;45.78;95202.06;5115499;28;20454;-80
2023/07/12 09:05:42;;;;;;;20.10;12.40;;;;;;;32.58;44.53;95204.06;5115419;28;20811;-79
2023/07/12 09:08:18;;;;;;;12.40;10.57;;;;;;;32.64;46.37;95203.00;5115959;28;20458;-79
2023/07/12 09:10:48;;;;;;;15.20;13.70;;;;;;;32.55;44.89;95194.53;5115702;28;20928;-80
2023/07/12 09:13:17;;;;;;;12.90;11.53;;;;;;;32.42;45.54;95196.88;5097740;28;20467;-80
2023/07/12 09:15:47;;;;;;;14.57;12.23;;;;;;;32.23;46.66;95188.25;5116670;28;20439;-81
2023/07/12 09:18:27;;;;;;;18.23;13.43;;;;;;;32.17;46.32;95189.28;5115447;28;20454;-80
2023/07/12 09:20:57;;;;;;;16.57;12.03;;;;;;;31.99;46.38;95180.41;5115167;28;20929;-80
2023/07/12 09:23:24;;;;;;;17.17;12.63;;;;;;;32.15;45.66;95175.16;5115594;28;20451;-80
2023/07/12 09:25:55;;;;;;;17.00;13.07;;;;;;;31.87;47.25;95171.63;5115284;28;20443;-79
2023/07/12 09:28:22;;;;;;;16.97;13.07;;;;;;;32.21;48.83;95171.41;5114972;28;20447;-80
2023/07/12 09:30:51;;;;;;;13.17;11.97;;;;;;;32.38;44.98;95163.94;5115051;28;20444;-80
2023/07/12 09:33:22;;;;;;;15.53;12.00;;;;;;;32.56;45.66;95165.44;5117598;28;20953;-79
2023/07/12 09:35:50;;;;;;;15.47;13.70;;;;;;;32.65;44.37;95161.16;5115262;28;20506;-80
2023/07/12 09:38:23;;;;;;;14.00;11.37;;;;;;;32.83;43.87;95165.41;5115029;28;20465;-79
2023/07/12 09:40:51;;;;;;;15.50;12.87;;;;;;;33.01;44.18;95159.53;5114917;28;20973;-79
2023/07/12 09:43:19;;;;;;;13.73;12.30;;;;;;;33.13;43.72;95156.59;5115043;28;20450;-81
2023/07/12 09:45:59;;;;;;;16.63;13.17;;;;;;;33.19;44.02;95150.91;5115010;28;20443;-79
2023/07/12 09:48:32;;;;;;;14.17;12.73;;;;;;;33.10;44.36;95152.50;5115055;28;20438;-80
2023/07/12 09:51:09;;;;;;;12.83;11.53;;;;;;;32.78;44.80;95140.88;5115173;28;20438;-80
2023/07/12 09:53:46;;;;;;;13.67;12.13;;;;;;;32.87;45.88;95144.75;5115045;28;20446;-81
2023/07/12 09:56:23;;;;;;;16.20;13.00;;;;;;;32.59;45.21;95149.44;5114854;28;20451;-79
2023/07/12 09:59:00;;;;;;;13.90;12.50;;;;;;;32.44;45.88;95154.78;5114458;28;20941;-80
2023/07/12 10:01:38;;;;;;;16.23;12.53;;;;;;;32.25;46.28;95151.63;5113694;28;20821;-80
2023/07/12 10:04:21;;;;;;;14.40;11.73;;;;;;;32.01;47.83;95140.25;5114629;28;20434;-79
2023/07/12 10:06:50;;;;;;;20.57;13.97;;;;;;;32.09;46.83;95140.84;5114496;28;20449;-80
2023/07/12 10:09:26;;;;;;;14.63;12.77;;;;;;;32.25;47.33;95143.47;5114621;28;20518;-78
2023/07/12 10:11:59;;;;;;;20.30;12.80;;;;;;;32.31;46.98;95147.88;5114406;28;20446;-79
2023/07/12 10:14:32;;;;;;;17.17;13.27;;;;;;;32.05;46.23;95135.94;5114284;28;20461;-79
2023/07/12 10:16:59;;;;;;;15.83;12.73;;;;;;;32.13;47.35;95129.25;5113963;28;20443;-80
2023/07/12 10:19:30;;;;;;;15.67;13.87;;;;;;;32.25;48.63;95132.63;5113952;28;20443;-80
2023/07/12 10:22:00;;;;;;;16.53;13.57;;;;;;;32.25;48.04;95135.34;5061641;28;20940;-79
2023/07/12 10:24:35;;;;;;;19.00;13.20;;;;;;;32.33;47.09;95134.03;5113964;28;20933;-79
2023/07/12 10:27:04;;;;;;;15.30;13.40;;;;;;;32.23;48.05;95123.06;5114230;28;20998;-79
2023/07/12 10:29:42;;;;;;;18.17;14.60;;;;;;;32.18;46.60;95131.19;5062134;28;20482;-80
2023/07/12 10:32:19;;;;;;;31.80;13.50;;;;;;;32.25;47.56;95126.34;5113794;28;20794;-80
2023/07/12 10:34:52;;;;;;;14.57;13.07;;;;;;;32.31;46.80;95128.03;5077686;28;20445;-79
2023/07/12 10:37:25;;;;;;;17.87;12.77;;;;;;;32.46;46.70;95114.59;5114028;28;20831;-79
2023/07/12 10:39:54;;;;;;;17.47;13.00;;;;;;;32.62;47.21;95119.03;5114012;28;20450;-80
2023/07/12 10:42:35;;;;;;;15.77;12.90;;;;;;;32.57;47.08;95116.28;5114304;28;20450;-80
2023/07/12 10:45:05;;;;;;;22.07;13.10;;;;;;;32.67;46.43;95112.78;5113838;28;20446;-79
2023/07/12 10:47:38;;;;;;;15.90;12.20;;;;;;;32.88;47.77;95111.03;5113864;28;20454;-79
2023/07/12 10:50:21;;;;;;;11.43;9.53;;;;;;;33.08;43.93;95115.78;5095060;28;20478;-79
2023/07/12 10:53:05;;;;;;;19.93;12.57;;;;;;;33.10;44.13;95106.25;5114077;28;20513;-79
2023/07/12 10:55:44;;;;;;;13.37;12.13;;;;;;;33.15;43.98;95095.41;5113978;28;20446;-79
2023/07/12 10:58:25;;;;;;;13.70;11.43;;;;;;;33.18;44.50;95100.31;5114021;28;20473;-79
2023/07/12 11:00:54;;;;;;;14.20;12.47;;;;;;;33.16;43.95;95094.31;5113742;28;20470;-79
2023/07/12 11:03:22;;;;;;;12.97;11.20;;;;;;;33.25;44.42;95092.75;5061311;28;20458;-79
2023/07/12 11:06:05;;;;;;;21.33;13.00;;;;;;;33.26;44.06;95097.09;5061116;28;20435;-79
2023/07/12 11:08:43;;;;;;;16.17;12.27;;;;;;;33.35;44.03;95094.69;5113415;28;20954;-80
2023/07/12 11:11:40;;;;;;;21.70;11.97;;;;;;;33.52;45.55;95084.38;5113485;28;20482;-79
2023/07/12 11:14:17;;;;;;;16.93;12.20;;;;;;;33.48;42.80;95082.47;5050630;28;20456;-79
2023/07/12 11:16:46;;;;;;;15.30;9.97;;;;;;;33.57;41.26;95078.16;5050678;28;20597;-79
2023/07/12 11:19:44;;;;;;;11.87;10.77;;;;;;;33.63;41.56;95079.78;5050836;28;20481;-79
2023/07/12 11:22:14;;;;;;;15.43;10.30;;;;;;;33.62;40.35;95080.06;5050876;28;20801;-79
2023/07/12 11:24:52;;;;;;;12.20;10.27;;;;;;;33.58;40.86;95078.97;5050863;28;20441;-80
2023/07/12 11:27:32;;;;;;;17.00;11.17;;;;;;;33.54;41.54;95075.94;5050696;28;20808;-79